createdAt,value
2022-08-12T00:00:01.626Z,7.30
2022-08-12T00:02:02.003Z,9.38
2022-08-12T00:03:02.393Z,7.70
2022-08-12T00:04:23.095Z,8.85
2022-08-12T00:06:04.293Z,8.52
2022-08-12T00:07:25.539Z,7.57
2022-08-12T00:08:45.785Z,7.78
2022-08-12T00:10:06.028Z,6.63
2022-08-12T00:11:26.357Z,5.70
2022-08-12T00:12:47.972Z,7.70
2022-08-12T00:14:08.474Z,7.63
2022-08-12T00:15:34.236Z,11.43
2022-08-12T00:16:55.344Z,7.60
2022-08-12T00:18:15.648Z,7.28
2022-08-12T00:19:36.079Z,7.28
2022-08-12T00:20:56.987Z,6.63
2022-08-12T00:22:19.020Z,8.20
2022-08-12T00:23:39.184Z,7.97
2022-08-12T00:24:59.471Z,7.72
2022-08-12T00:26:23.272Z,7.22
2022-08-12T00:27:45.099Z,6.53
2022-08-12T00:29:08.099Z,5.90
2022-08-12T00:30:30.030Z,6.53
2022-08-12T00:31:50.391Z,6.63
2022-08-12T00:33:11.287Z,5.13
2022-08-12T00:34:31.978Z,5.40
2022-08-12T00:35:52.753Z,7.90
2022-08-12T00:37:14.722Z,4.85
2022-08-12T00:38:35.147Z,5.65
2022-08-12T00:39:56.604Z,6.75
2022-08-12T00:41:17.292Z,4.93
2022-08-12T00:42:20.123Z,7.75
2022-08-12T00:43:24.965Z,5.70
2022-08-12T00:44:28.077Z,6.22
2022-08-12T00:45:51.195Z,7.65
2022-08-12T00:46:54.956Z,6.90
2022-08-12T00:47:57.939Z,6.97
2022-08-12T00:48:59.831Z,9.02
2022-08-12T00:50:03.003Z,8.40
2022-08-12T00:51:06.583Z,7.32
2022-08-12T00:52:12.490Z,10.70
2022-08-12T00:53:15.025Z,10.18
2022-08-12T00:54:21.813Z,8.00
2022-08-12T00:55:24.409Z,11.57
2022-08-12T00:56:27.971Z,10.65
2022-08-12T00:57:32.344Z,11.80
2022-08-12T00:58:34.781Z,10.63
2022-08-12T00:59:44.379Z,10.07
2022-08-12T01:00:47.078Z,11.20
2022-08-12T01:02:11.651Z,11.68
2022-08-12T01:03:12.360Z,13.05
2022-08-12T01:04:37.606Z,9.60
2022-08-12T01:05:58.938Z,11.00
2022-08-12T01:07:19.982Z,8.30
2022-08-12T01:08:45.555Z,12.73
2022-08-12T01:10:06.191Z,10.77
2022-08-12T01:11:26.447Z,11.52
2022-08-12T01:12:29.943Z,11.85
2022-08-12T01:13:33.954Z,12.40
2022-08-12T01:14:38.673Z,10.07
2022-08-12T01:15:40.843Z,12.07
2022-08-12T01:16:43.431Z,9.85
2022-08-12T01:17:45.571Z,11.98
2022-08-12T01:18:48.206Z,8.85
2022-08-12T01:19:51.243Z,11.48
2022-08-12T01:21:00.790Z,11.82
2022-08-12T01:22:23.152Z,11.98
2022-08-12T01:23:39.300Z,10.45
2022-08-12T01:24:51.446Z,12.10
2022-08-12T01:25:56.076Z,9.60
2022-08-12T01:26:59.080Z,13.85
2022-08-12T01:28:01.917Z,11.93
2022-08-12T01:29:03.892Z,11.65
2022-08-12T01:30:08.665Z,11.60
2022-08-12T01:31:16.220Z,8.18
2022-08-12T01:32:22.032Z,10.20
2022-08-12T01:33:25.527Z,11.60
2022-08-12T01:34:36.264Z,8.50
2022-08-12T01:35:40.595Z,10.13
2022-08-12T01:36:45.879Z,11.13
2022-08-12T01:37:49.408Z,10.38
2022-08-12T01:38:52.250Z,8.45
2022-08-12T01:40:36.829Z,8.88
2022-08-12T01:41:22.667Z,8.00
2022-08-12T01:42:26.059Z,5.95
2022-08-12T01:43:29.733Z,8.52
2022-08-12T01:44:31.725Z,8.80
2022-08-12T01:45:42.908Z,10.00
2022-08-12T01:46:53.505Z,8.75
2022-08-12T01:48:06.061Z,10.25
2022-08-12T01:49:21.711Z,12.82
2022-08-12T01:50:27.533Z,8.35
2022-08-12T01:52:15.057Z,8.30
2022-08-12T01:53:08.171Z,7.28
2022-08-12T01:54:12.520Z,7.50
2022-08-12T01:55:20.592Z,8.45
2022-08-12T01:56:25.135Z,7.53
2022-08-12T01:57:58.264Z,8.32
2022-08-12T01:59:21.220Z,8.85
2022-08-12T02:00:35.757Z,6.60
2022-08-12T02:01:47.579Z,11.93
2022-08-12T02:02:54.828Z,8.57
2022-08-12T02:04:22.706Z,7.88
2022-08-12T02:05:50.178Z,6.05
2022-08-12T02:07:15.486Z,9.27
2022-08-12T02:08:46.171Z,6.13
2022-08-12T02:10:50.948Z,5.15
2022-08-12T02:11:46.011Z,6.50
2022-08-12T02:12:54.505Z,5.57
2022-08-12T02:14:32.591Z,9.05
2022-08-12T02:15:41.387Z,8.27
2022-08-12T02:17:05.976Z,5.63
2022-08-12T02:18:17.100Z,6.10
2022-08-12T02:19:29.903Z,6.82
2022-08-12T02:20:51.661Z,10.20
2022-08-12T02:22:02.814Z,7.78
2022-08-12T02:23:08.993Z,8.48
2022-08-12T02:24:13.888Z,10.48
2022-08-12T02:25:18.843Z,8.35
2022-08-12T02:26:20.643Z,11.63
2022-08-12T02:27:27.587Z,9.93
2022-08-12T02:28:29.638Z,11.43
2022-08-12T02:29:32.281Z,8.82
2022-08-12T02:30:42.145Z,9.68
2022-08-12T02:31:45.597Z,10.13
2022-08-12T02:32:49.155Z,12.23
2022-08-12T02:33:52.169Z,12.65
2022-08-12T02:34:55.427Z,8.93
2022-08-12T02:35:58.307Z,10.68
2022-08-12T02:37:02.430Z,8.23
2022-08-12T02:38:08.843Z,12.35
2022-08-12T02:39:14.234Z,10.65
2022-08-12T02:40:18.485Z,11.45
2022-08-12T02:41:21.590Z,13.63
2022-08-12T02:42:29.064Z,14.15
2022-08-12T02:43:37.773Z,12.00
2022-08-12T02:44:41.483Z,11.23
2022-08-12T02:45:47.992Z,13.35
2022-08-12T02:46:55.047Z,15.52
2022-08-12T02:48:01.133Z,15.55
2022-08-12T02:49:06.338Z,14.18
2022-08-12T02:50:11.830Z,14.65
2022-08-12T02:51:19.426Z,12.95
2022-08-12T02:52:23.432Z,13.18
2022-08-12T02:53:26.342Z,12.30
2022-08-12T02:54:28.975Z,12.65
2022-08-12T02:55:35.110Z,10.80
2022-08-12T02:56:41.232Z,13.23
2022-08-12T02:57:44.601Z,11.32
2022-08-12T02:58:47.733Z,11.23
2022-08-12T02:59:50.057Z,12.25
2022-08-12T03:00:53.011Z,12.98
2022-08-12T03:01:56.227Z,12.45
2022-08-12T03:03:01.854Z,10.32
2022-08-12T03:04:07.117Z,13.73
2022-08-12T03:05:25.159Z,14.27
2022-08-12T03:06:30.452Z,11.38
2022-08-12T03:07:59.627Z,10.95
2022-08-12T03:09:03.721Z,12.98
2022-08-12T03:10:13.045Z,12.68
2022-08-12T03:11:24.751Z,12.75
2022-08-12T03:12:26.779Z,10.80
2022-08-12T03:13:40.173Z,10.13
2022-08-12T03:14:43.365Z,17.25
2022-08-12T03:15:46.051Z,11.30
2022-08-12T03:16:50.759Z,8.77
2022-08-12T03:18:25.365Z,9.82
2022-08-12T03:19:20.535Z,11.52
2022-08-12T03:20:28.345Z,8.30
2022-08-12T03:21:53.159Z,11.07
2022-08-12T03:22:59.002Z,8.85
2022-08-12T03:24:01.545Z,13.30
2022-08-12T03:25:05.286Z,10.38
2022-08-12T03:26:08.141Z,11.60
2022-08-12T03:27:13.003Z,10.63
2022-08-12T03:28:35.244Z,8.30
2022-08-12T03:29:49.781Z,12.63
2022-08-12T03:30:56.771Z,13.48
2022-08-12T03:32:00.736Z,7.47
2022-08-12T03:33:03.425Z,9.70
2022-08-12T03:34:08.480Z,9.00
2022-08-12T03:35:40.580Z,9.25
2022-08-12T03:36:39.218Z,7.90
2022-08-12T03:37:42.670Z,11.00
2022-08-12T03:38:52.046Z,8.80
2022-08-12T03:39:55.245Z,9.68
2022-08-12T03:41:18.583Z,9.27
2022-08-12T03:42:28.211Z,6.25
2022-08-12T03:43:52.259Z,6.05
2022-08-12T03:45:29.561Z,8.88
2022-08-12T03:46:52.458Z,8.93
2022-08-12T03:48:19.087Z,8.18
2022-08-12T03:49:39.603Z,10.27
2022-08-12T03:51:00.358Z,8.82
2022-08-12T03:52:21.739Z,7.95
2022-08-12T03:53:45.134Z,8.23
2022-08-12T03:55:05.531Z,7.55
2022-08-12T03:56:25.804Z,10.25
2022-08-12T03:57:48.648Z,7.35
2022-08-12T03:59:11.587Z,12.10
2022-08-12T04:00:24.271Z,7.85
2022-08-12T04:01:27.196Z,9.98
2022-08-12T04:02:29.915Z,9.30
2022-08-12T04:03:50.427Z,8.55
2022-08-12T04:04:53.356Z,7.68
2022-08-12T04:05:56.732Z,5.70
2022-08-12T04:06:59.831Z,8.75
2022-08-12T04:08:01.450Z,8.48
2022-08-12T04:09:15.855Z,7.03
2022-08-12T04:10:19.148Z,8.25
2022-08-12T04:11:46.731Z,9.50
2022-08-12T04:13:14.895Z,8.00
2022-08-12T04:14:20.568Z,8.57
2022-08-12T04:15:26.489Z,8.60
2022-08-12T04:16:29.132Z,8.10
2022-08-12T04:17:31.415Z,12.23
2022-08-12T04:18:34.533Z,7.60
2022-08-12T04:19:38.003Z,8.60
2022-08-12T04:20:42.894Z,8.43
2022-08-12T04:22:01.708Z,8.10
2022-08-12T04:23:08.389Z,6.47
2022-08-12T04:24:10.743Z,7.60
2022-08-12T04:25:13.709Z,7.38
2022-08-12T04:26:16.345Z,7.30
2022-08-12T04:27:18.972Z,9.77
2022-08-12T04:28:25.690Z,8.93
2022-08-12T04:30:31.932Z,8.60
2022-08-12T04:30:52.007Z,7.22
2022-08-12T04:31:56.015Z,8.30
2022-08-12T04:32:58.166Z,8.68
2022-08-12T04:34:01.238Z,7.28
2022-08-12T04:35:03.838Z,7.55
2022-08-12T04:36:06.776Z,8.43
2022-08-12T04:37:08.795Z,7.63
2022-08-12T04:38:15.592Z,10.35
2022-08-12T04:39:17.960Z,5.72
2022-08-12T04:40:28.016Z,8.07
2022-08-12T04:41:31.777Z,5.13
2022-08-12T04:42:33.428Z,7.40
2022-08-12T04:44:00.813Z,7.18
2022-08-12T04:44:57.957Z,8.68
2022-08-12T04:46:02.741Z,7.97
2022-08-12T04:47:04.823Z,5.95
2022-08-12T04:48:07.956Z,7.50
2022-08-12T04:49:09.621Z,6.93
2022-08-12T04:50:34.158Z,9.63
2022-08-12T04:51:36.779Z,7.53
2022-08-12T04:52:38.464Z,8.98
2022-08-12T04:53:41.327Z,6.85
2022-08-12T04:54:44.011Z,8.48
2022-08-12T04:55:48.150Z,8.95
2022-08-12T04:57:04.284Z,6.68
2022-08-12T04:58:08.433Z,7.88
2022-08-12T04:59:11.535Z,6.95
2022-08-12T05:00:16.542Z,8.68
2022-08-12T05:01:20.054Z,8.10
2022-08-12T05:02:23.141Z,7.72
2022-08-12T05:03:26.066Z,6.60
2022-08-12T05:04:29.234Z,8.02
2022-08-12T05:05:35.825Z,9.00
2022-08-12T05:06:38.938Z,9.43
2022-08-12T05:07:45.821Z,5.53
2022-08-12T05:09:00.445Z,6.13
2022-08-12T05:10:02.681Z,8.68
2022-08-12T05:11:05.990Z,5.55
2022-08-12T05:12:08.259Z,7.53
2022-08-12T05:13:15.378Z,8.18
2022-08-12T05:14:17.071Z,9.00
2022-08-12T05:15:29.145Z,7.97
2022-08-12T05:16:36.028Z,8.75
2022-08-12T05:17:37.837Z,7.18
2022-08-12T05:18:41.067Z,8.93
2022-08-12T05:19:47.534Z,6.88
2022-08-12T05:20:52.012Z,7.78
2022-08-12T05:21:53.697Z,8.82
2022-08-12T05:23:12.510Z,10.38
2022-08-12T05:24:16.277Z,5.75
2022-08-12T05:25:20.106Z,9.98
2022-08-12T05:26:25.001Z,5.45
2022-08-12T05:27:26.647Z,7.35
2022-08-12T05:28:30.360Z,5.55
2022-08-12T05:30:06.335Z,6.38
2022-08-12T05:30:54.722Z,9.07
2022-08-12T05:31:58.159Z,7.32
2022-08-12T05:33:02.502Z,10.13
2022-08-12T05:34:05.601Z,6.40
2022-08-12T05:35:08.916Z,8.70
2022-08-12T05:36:15.067Z,7.80
2022-08-12T05:37:17.822Z,8.60
2022-08-12T05:38:38.395Z,11.80
2022-08-12T05:39:41.721Z,6.40
2022-08-12T05:40:43.380Z,6.53
2022-08-12T05:41:46.040Z,6.70
2022-08-12T05:42:47.898Z,6.30
2022-08-12T05:43:52.022Z,6.93
2022-08-12T05:44:53.663Z,5.53
2022-08-12T05:45:56.303Z,5.18
2022-08-12T05:47:00.303Z,5.60
2022-08-12T05:48:02.653Z,8.60
2022-08-12T05:49:06.328Z,6.07
2022-08-12T05:50:08.794Z,6.78
2022-08-12T05:51:16.081Z,9.25
2022-08-12T05:52:17.676Z,6.43
2022-08-12T05:53:21.994Z,5.30
2022-08-12T05:54:41.201Z,7.82
2022-08-12T05:55:46.182Z,8.75
2022-08-12T05:56:48.777Z,6.70
2022-08-12T05:57:53.580Z,7.35
2022-08-12T05:58:56.405Z,6.45
2022-08-12T05:59:58.030Z,8.73
2022-08-12T06:01:01.166Z,6.72
2022-08-12T06:02:24.139Z,8.63
2022-08-12T06:03:27.342Z,5.57
2022-08-12T06:04:29.679Z,9.55
2022-08-12T06:05:34.433Z,6.05
2022-08-12T06:06:55.706Z,12.13
2022-08-12T06:08:02.328Z,6.85
2022-08-12T06:09:05.171Z,6.03
2022-08-12T06:10:08.427Z,7.47
2022-08-12T06:11:10.401Z,6.50
2022-08-12T06:12:13.568Z,6.68
2022-08-12T06:13:15.216Z,7.75
2022-08-12T06:14:32.337Z,7.80
2022-08-12T06:15:37.741Z,8.55
2022-08-12T06:16:40.482Z,7.00
2022-08-12T06:17:43.615Z,5.65
2022-08-12T06:18:46.690Z,6.93
2022-08-12T06:20:28.645Z,5.22
2022-08-12T06:21:12.898Z,8.60
2022-08-12T06:22:15.322Z,5.13
2022-08-12T06:23:17.932Z,5.03
2022-08-12T06:24:24.768Z,10.50
2022-08-12T06:25:29.181Z,7.57
2022-08-12T06:26:34.448Z,5.97
2022-08-12T06:27:42.355Z,6.10
2022-08-12T06:29:04.943Z,7.32
2022-08-12T06:30:14.251Z,8.20
2022-08-12T06:31:26.134Z,6.65
2022-08-12T06:32:29.417Z,8.80
2022-08-12T06:33:55.237Z,8.70
2022-08-12T06:35:25.026Z,8.25
2022-08-12T06:36:23.227Z,8.13
2022-08-12T06:37:25.871Z,6.15
2022-08-12T06:38:30.579Z,6.60
2022-08-12T06:39:32.217Z,9.00
2022-08-12T06:40:52.660Z,10.07
2022-08-12T06:42:42.109Z,8.27
2022-08-12T06:44:05.986Z,8.18
2022-08-12T06:44:58.352Z,8.50
2022-08-12T06:46:00.130Z,10.05
2022-08-12T06:47:02.774Z,10.07
2022-08-12T06:48:07.713Z,9.32
2022-08-12T06:49:13.360Z,7.80
2022-08-12T06:50:16.399Z,11.02
2022-08-12T06:51:20.669Z,4.85
2022-08-12T06:52:24.837Z,6.22
2022-08-12T06:53:27.531Z,6.55
2022-08-12T06:54:32.299Z,5.28
2022-08-12T06:55:34.383Z,9.15
2022-08-12T06:58:09.709Z,10.18
2022-08-12T06:59:14.633Z,5.55
2022-08-12T07:00:22.526Z,6.20
2022-08-12T07:01:36.799Z,6.32
2022-08-12T07:02:38.563Z,7.13
2022-08-12T07:03:41.377Z,5.20
2022-08-12T07:04:47.384Z,6.65
2022-08-12T07:05:50.720Z,7.53
2022-08-12T07:06:55.679Z,8.55
2022-08-12T07:08:16.881Z,9.93
2022-08-12T07:10:04.087Z,9.88
2022-08-12T07:10:47.391Z,7.05
2022-08-12T07:11:50.968Z,5.93
2022-08-12T07:12:54.836Z,8.50
2022-08-12T07:14:12.789Z,6.45
2022-08-12T07:15:17.907Z,8.70
2022-08-12T07:16:22.126Z,4.72
2022-08-12T07:17:23.791Z,6.60
2022-08-12T07:18:32.595Z,6.28
2022-08-12T07:19:44.918Z,5.15
2022-08-12T07:20:52.762Z,6.65
2022-08-12T07:22:01.668Z,4.82
2022-08-12T07:23:06.689Z,7.07
2022-08-12T07:24:09.372Z,7.03
2022-08-12T07:25:29.904Z,10.40
2022-08-12T07:26:43.755Z,6.72
2022-08-12T07:27:46.735Z,7.80
2022-08-12T07:28:50.347Z,5.18
2022-08-12T07:29:58.023Z,6.53
2022-08-12T07:31:09.081Z,4.82
2022-08-12T07:32:11.081Z,5.60
2022-08-12T07:33:15.674Z,4.15
2022-08-12T07:34:18.304Z,6.03
2022-08-12T07:35:20.592Z,5.40
2022-08-12T07:36:25.421Z,4.40
2022-08-12T07:37:27.156Z,4.30
2022-08-12T07:38:33.296Z,6.53
2022-08-12T07:39:35.375Z,9.68
2022-08-12T07:40:38.139Z,10.07
2022-08-12T07:41:40.799Z,6.18
2022-08-12T07:42:44.063Z,8.15
2022-08-12T07:43:49.604Z,7.25
2022-08-12T07:44:51.918Z,6.32
2022-08-12T07:45:55.185Z,4.47
2022-08-12T07:46:56.823Z,5.03
2022-08-12T07:47:59.382Z,4.40
2022-08-12T07:49:05.102Z,4.13
2022-08-12T07:50:09.443Z,6.10
2022-08-12T07:51:24.922Z,3.88
2022-08-12T07:52:28.873Z,6.93
2022-08-12T07:53:32.347Z,6.30
2022-08-12T07:54:34.002Z,5.93
2022-08-12T07:55:36.627Z,7.40
2022-08-12T07:56:39.332Z,5.97
2022-08-12T07:57:54.140Z,7.10
2022-08-12T07:58:59.275Z,8.65
2022-08-12T08:00:05.082Z,7.05
2022-08-12T08:01:12.067Z,5.70
2022-08-12T08:02:14.012Z,4.65
2022-08-12T08:03:17.167Z,3.75
2022-08-12T08:04:37.508Z,6.88
2022-08-12T08:05:41.734Z,9.05
2022-08-12T08:06:44.792Z,4.97
2022-08-12T08:07:48.939Z,5.20
2022-08-12T08:08:50.728Z,7.18
2022-08-12T08:09:58.702Z,15.00
2022-08-12T08:11:19.568Z,6.35
2022-08-12T08:12:39.981Z,10.93
2022-08-12T08:13:42.859Z,9.32
2022-08-12T08:14:44.846Z,7.82
2022-08-12T08:16:03.128Z,11.85
2022-08-12T08:17:06.441Z,10.25
2022-08-12T08:18:11.068Z,10.57
2022-08-12T08:19:19.157Z,4.93
2022-08-12T08:20:23.378Z,5.95
2022-08-12T08:21:32.879Z,4.70
2022-08-12T08:22:40.887Z,7.93
2022-08-12T08:24:05.366Z,4.80
2022-08-12T08:25:34.402Z,7.10
2022-08-12T08:26:32.514Z,6.10
2022-08-12T08:27:45.378Z,6.57
2022-08-12T08:28:47.975Z,6.00
2022-08-12T08:29:49.679Z,5.22
2022-08-12T08:30:52.859Z,7.25
2022-08-12T08:31:54.686Z,4.45
2022-08-12T08:32:57.589Z,7.13
2022-08-12T08:34:27.589Z,4.30
2022-08-12T08:35:23.573Z,6.47
2022-08-12T08:36:30.594Z,5.65
2022-08-12T08:37:34.112Z,6.05
2022-08-12T08:38:57.947Z,5.47
2022-08-12T08:40:22.831Z,5.82
2022-08-12T08:42:17.882Z,3.97
2022-08-12T08:43:04.724Z,6.18
2022-08-12T08:44:07.331Z,4.13
2022-08-12T08:45:13.071Z,3.65
2022-08-12T08:46:15.756Z,5.93
2022-08-12T08:47:17.409Z,6.25
2022-08-12T08:48:22.126Z,4.70
2022-08-12T08:49:23.857Z,3.90
2022-08-12T08:50:26.920Z,3.53
2022-08-12T08:51:28.541Z,13.98
2022-08-12T08:52:37.117Z,5.57
2022-08-12T08:53:51.874Z,2.97
2022-08-12T08:54:55.655Z,5.13
2022-08-12T08:56:05.018Z,4.78
2022-08-12T08:57:08.291Z,5.05
2022-08-12T08:58:12.192Z,3.25
2022-08-12T08:59:14.325Z,5.80
2022-08-12T09:00:18.419Z,9.85
2022-08-12T09:01:21.565Z,8.38
2022-08-12T09:02:24.287Z,5.40
2022-08-12T09:04:21.561Z,4.13
2022-08-12T09:05:14.553Z,4.10
2022-08-12T09:06:14.568Z,5.38
2022-08-12T09:07:58.686Z,6.55
2022-08-12T09:08:41.478Z,7.20
2022-08-12T09:10:02.345Z,4.53
2022-08-12T09:12:06.709Z,8.05
2022-08-12T09:13:02.235Z,6.70
2022-08-12T09:14:18.677Z,4.63
2022-08-12T09:15:21.707Z,7.50
2022-08-12T09:16:25.070Z,3.60
2022-08-12T09:17:27.094Z,3.08
2022-08-12T09:18:45.751Z,9.82
2022-08-12T09:19:52.280Z,3.47
2022-08-12T09:21:02.180Z,3.97
2022-08-12T09:22:08.273Z,4.97
2022-08-12T09:23:58.907Z,4.40
2022-08-12T09:24:36.223Z,5.55
2022-08-12T09:25:42.675Z,6.80
2022-08-12T09:26:47.516Z,6.80
2022-08-12T09:29:15.242Z,3.80
2022-08-12T09:30:17.822Z,4.35
2022-08-12T09:32:06.658Z,5.30
2022-08-12T09:33:14.458Z,4.45
2022-08-12T09:34:27.872Z,7.82
2022-08-12T09:35:43.177Z,2.80
2022-08-12T09:37:00.800Z,4.10
2022-08-12T09:38:04.771Z,4.00
2022-08-12T09:40:05.844Z,2.88
2022-08-12T09:40:57.940Z,3.47
2022-08-12T09:42:39.226Z,8.27
2022-08-12T09:43:54.006Z,3.25
2022-08-12T09:45:24.150Z,3.42
2022-08-12T09:46:45.548Z,2.85
2022-08-12T09:47:59.708Z,3.90
2022-08-12T09:49:16.347Z,5.55
2022-08-12T09:50:20.278Z,5.90
2022-08-12T09:51:23.386Z,2.00
2022-08-12T09:52:24.980Z,2.47
2022-08-12T09:53:38.649Z,5.22
2022-08-12T09:54:43.069Z,2.00
2022-08-12T09:56:05.415Z,4.00
2022-08-12T09:58:45.412Z,2.67
2022-08-12T09:58:58.113Z,7.75
2022-08-12T10:00:15.014Z,3.78
2022-08-12T10:01:23.181Z,2.38
2022-08-12T10:02:53.070Z,4.63
2022-08-12T10:04:04.254Z,2.47
2022-08-12T10:05:13.367Z,8.07
2022-08-12T10:06:31.798Z,2.50
2022-08-12T10:07:40.620Z,2.60
2022-08-12T10:08:44.808Z,3.53
2022-08-12T10:09:58.323Z,1.70
2022-08-12T10:11:21.388Z,3.28
2022-08-12T10:12:43.598Z,2.58
2022-08-12T10:14:05.496Z,2.30
2022-08-12T10:15:15.349Z,3.95
2022-08-12T10:16:43.739Z,2.85
2022-08-12T10:17:56.717Z,5.88
2022-08-12T10:19:17.334Z,3.63
2022-08-12T10:20:19.525Z,4.50
2022-08-12T10:21:36.486Z,2.17
2022-08-12T10:22:41.236Z,2.00
2022-08-12T10:23:48.333Z,3.42
2022-08-12T10:25:17.333Z,4.68
2022-08-12T10:26:39.694Z,2.20
2022-08-12T10:28:04.526Z,6.47
2022-08-12T10:30:40.963Z,2.05
2022-08-12T10:30:58.910Z,2.13
2022-08-12T10:32:20.843Z,3.78
2022-08-12T10:33:31.484Z,4.30
2022-08-12T10:34:34.272Z,2.47
2022-08-12T10:35:41.330Z,3.13
2022-08-12T10:36:44.356Z,5.15
2022-08-12T10:38:37.963Z,4.40
2022-08-12T10:40:00.231Z,3.05
2022-08-12T10:40:55.468Z,3.28
2022-08-12T10:42:15.996Z,3.75
2022-08-12T10:43:55.079Z,3.08
2022-08-12T10:45:03.779Z,3.83
2022-08-12T10:46:13.399Z,4.30
2022-08-12T10:47:26.541Z,3.20
2022-08-12T10:48:42.621Z,3.35
2022-08-12T10:50:28.174Z,3.00
2022-08-12T10:52:03.628Z,5.03
2022-08-12T10:52:52.626Z,2.97
2022-08-12T10:54:00.607Z,3.88
2022-08-12T10:55:06.953Z,5.45
2022-08-12T10:56:15.445Z,3.17
2022-08-12T10:58:15.094Z,5.82
2022-08-12T10:58:45.891Z,2.95
2022-08-12T11:00:31.165Z,2.58
2022-08-12T11:01:49.294Z,2.90
2022-08-12T11:04:19.785Z,2.58
2022-08-12T11:04:25.443Z,2.78
2022-08-12T11:07:06.572Z,3.78
2022-08-12T11:07:07.263Z,4.40
2022-08-12T11:08:36.753Z,2.40
2022-08-12T11:09:55.670Z,5.03
2022-08-12T11:10:57.672Z,3.25
2022-08-12T11:12:35.967Z,8.40
2022-08-12T11:13:46.084Z,2.25
2022-08-12T11:14:53.453Z,5.75
2022-08-12T11:16:03.823Z,2.45
2022-08-12T11:17:43.693Z,4.00
2022-08-12T11:18:41.677Z,4.28
2022-08-12T11:19:45.201Z,3.85
2022-08-12T11:20:49.164Z,2.35
2022-08-12T11:21:57.628Z,4.20
2022-08-12T11:23:25.263Z,4.70
2022-08-12T11:24:31.823Z,2.45
2022-08-12T11:25:55.581Z,3.22
2022-08-12T11:26:59.562Z,2.67
2022-08-12T11:28:01.382Z,4.50
2022-08-12T11:29:05.926Z,3.72
2022-08-12T11:30:30.982Z,4.03
2022-08-12T11:31:56.392Z,3.35
2022-08-12T11:32:56.230Z,3.50
2022-08-12T11:34:06.679Z,3.15
2022-08-12T11:35:22.170Z,5.70
2022-08-12T11:36:25.208Z,3.55
2022-08-12T11:37:28.887Z,4.47
2022-08-12T11:38:30.605Z,1.95
2022-08-12T11:40:55.821Z,2.50
2022-08-12T11:42:00.564Z,2.95
2022-08-12T11:43:18.731Z,3.35
2022-08-12T11:44:37.277Z,4.00
2022-08-12T11:45:47.191Z,4.03
2022-08-12T11:46:51.319Z,2.88
2022-08-12T11:47:55.597Z,2.08
2022-08-12T11:48:58.278Z,2.58
2022-08-12T11:50:00.382Z,6.45
2022-08-12T11:51:04.039Z,2.75
2022-08-12T11:52:26.532Z,2.13
2022-08-12T11:53:58.404Z,2.05
2022-08-12T11:54:54.307Z,3.72
2022-08-12T11:55:56.202Z,2.50
2022-08-12T11:57:02.704Z,2.35
2022-08-12T11:59:16.184Z,2.28
2022-08-12T12:02:21.495Z,2.13
2022-08-12T12:03:24.331Z,3.05
2022-08-12T12:04:46.279Z,3.95
2022-08-12T12:05:55.799Z,5.13
2022-08-12T12:07:07.074Z,2.95
2022-08-12T12:08:37.499Z,4.63
2022-08-12T12:09:42.865Z,7.28
2022-08-12T12:10:55.232Z,3.92
2022-08-12T12:11:57.811Z,3.00
2022-08-12T12:13:00.477Z,2.47
2022-08-12T12:14:06.193Z,5.35
2022-08-12T12:15:12.484Z,3.92
2022-08-12T12:16:17.404Z,2.30
2022-08-12T12:17:18.997Z,1.95
2022-08-12T12:18:30.909Z,5.03
2022-08-12T12:19:45.429Z,3.50
2022-08-12T12:20:49.212Z,2.00
2022-08-12T12:21:50.847Z,1.70
2022-08-12T12:22:53.439Z,3.13
2022-08-12T12:24:00.785Z,1.92
2022-08-12T12:25:13.274Z,2.35
2022-08-12T12:26:34.950Z,3.38
2022-08-12T12:28:04.891Z,3.05
2022-08-12T12:30:18.784Z,3.10
2022-08-12T12:30:30.893Z,6.15
2022-08-12T12:32:11.228Z,4.57
2022-08-12T12:32:56.801Z,4.32
2022-08-12T12:33:59.442Z,3.03
2022-08-12T12:35:44.268Z,4.38
2022-08-12T12:36:29.275Z,2.75
2022-08-12T12:38:04.168Z,3.75
2022-08-12T12:38:55.053Z,3.55
2022-08-12T12:39:57.715Z,4.22
2022-08-12T12:41:16.653Z,3.55
2022-08-12T12:42:43.351Z,2.20
2022-08-12T12:43:43.633Z,2.97
2022-08-12T12:44:53.505Z,2.50
2022-08-12T12:45:57.097Z,2.47
2022-08-12T12:47:00.850Z,3.40
2022-08-12T12:48:05.505Z,2.33
2022-08-12T12:49:11.182Z,4.13
2022-08-12T12:50:35.306Z,1.90
2022-08-12T12:52:17.250Z,3.50
2022-08-12T12:53:03.611Z,1.92
2022-08-12T12:54:09.428Z,7.32
2022-08-12T12:55:14.381Z,2.47
2022-08-12T12:56:17.441Z,5.00
2022-08-12T12:57:35.860Z,3.00
2022-08-12T12:58:43.858Z,2.42
2022-08-12T13:00:05.709Z,2.58
2022-08-12T13:01:27.779Z,2.20
2022-08-12T13:02:32.337Z,2.40
2022-08-12T13:03:49.155Z,5.57
2022-08-12T13:04:51.203Z,2.85
2022-08-12T13:06:00.484Z,2.95
2022-08-12T13:07:03.556Z,2.10
2022-08-12T13:08:21.655Z,5.57
2022-08-12T13:09:36.404Z,3.17
2022-08-12T13:10:38.356Z,2.83
2022-08-12T13:11:53.979Z,4.15
2022-08-12T13:12:56.085Z,4.50
2022-08-12T13:14:08.731Z,3.50
2022-08-12T13:15:43.893Z,3.50
2022-08-12T13:16:44.001Z,3.67
2022-08-12T13:18:02.980Z,3.85
2022-08-12T13:19:07.782Z,2.80
2022-08-12T13:20:10.714Z,2.92
2022-08-12T13:21:33.216Z,4.05
2022-08-12T13:22:37.996Z,2.78
2022-08-12T13:23:45.970Z,2.25
2022-08-12T13:24:52.181Z,2.45
2022-08-12T13:25:58.547Z,3.38
2022-08-12T13:27:01.533Z,2.35
2022-08-12T13:28:05.841Z,3.70
2022-08-12T13:29:11.315Z,3.97
2022-08-12T13:30:17.655Z,3.97
2022-08-12T13:31:20.166Z,2.47
2022-08-12T13:32:31.612Z,7.25
2022-08-12T13:34:33.986Z,5.50
2022-08-12T13:35:04.021Z,2.42
2022-08-12T13:36:20.967Z,4.82
2022-08-12T13:37:26.602Z,2.88
2022-08-12T13:38:38.636Z,3.50
2022-08-12T13:39:40.328Z,3.22
2022-08-12T13:40:46.352Z,3.03
2022-08-12T13:41:49.549Z,5.07
2022-08-12T13:42:57.864Z,5.72
2022-08-12T13:44:00.002Z,3.17
2022-08-12T13:45:03.281Z,2.08
2022-08-12T13:46:12.282Z,2.83
2022-08-12T13:47:19.409Z,2.78
2022-08-12T13:48:23.630Z,2.33
2022-08-12T13:49:54.666Z,4.57
2022-08-12T13:50:57.589Z,4.35
2022-08-12T13:51:59.239Z,4.32
2022-08-12T13:53:06.301Z,2.45
2022-08-12T13:54:24.298Z,2.00
2022-08-12T13:55:30.996Z,2.83
2022-08-12T13:56:34.545Z,2.65
2022-08-12T13:57:44.606Z,2.65
2022-08-12T13:58:52.549Z,6.18
2022-08-12T13:59:55.424Z,2.90
2022-08-12T14:00:59.442Z,4.15
2022-08-12T14:02:01.467Z,3.10
2022-08-12T14:03:04.235Z,2.78
2022-08-12T14:04:08.233Z,3.67
2022-08-12T14:05:30.958Z,3.13
2022-08-12T14:06:40.321Z,4.70
2022-08-12T14:07:59.551Z,5.00
2022-08-12T14:09:17.935Z,2.38
2022-08-12T14:10:38.902Z,2.00
2022-08-12T14:11:58.724Z,3.90
2022-08-12T14:13:01.654Z,2.03
2022-08-12T14:14:13.014Z,4.03
2022-08-12T14:15:15.584Z,2.75
2022-08-12T14:16:46.907Z,2.35
2022-08-12T14:17:41.529Z,2.75
2022-08-12T14:18:48.524Z,1.90
2022-08-12T14:20:17.974Z,4.10
2022-08-12T14:21:24.190Z,4.90
2022-08-12T14:22:27.394Z,3.65
2022-08-12T14:24:04.050Z,7.10
2022-08-12T14:24:55.881Z,3.28
2022-08-12T14:26:00.584Z,3.88
2022-08-12T14:27:02.711Z,3.55
2022-08-12T14:28:11.397Z,4.28
2022-08-12T14:29:21.678Z,3.60
2022-08-12T14:30:36.314Z,2.90
2022-08-12T14:31:43.115Z,4.57
2022-08-12T14:32:45.316Z,2.53
2022-08-12T14:33:49.616Z,5.53
2022-08-12T14:34:52.976Z,2.15
2022-08-12T14:35:59.465Z,5.70
2022-08-12T14:37:07.343Z,2.60
2022-08-12T14:38:29.868Z,2.10
2022-08-12T14:39:32.084Z,2.63
2022-08-12T14:40:34.913Z,3.60
2022-08-12T14:41:48.235Z,3.45
2022-08-12T14:42:52.839Z,4.28
2022-08-12T14:44:04.696Z,4.50
2022-08-12T14:45:17.997Z,2.83
2022-08-12T14:46:27.153Z,4.00
2022-08-12T14:47:35.298Z,3.47
2022-08-12T14:48:38.467Z,6.60
2022-08-12T14:50:33.694Z,2.15
2022-08-12T14:52:48.100Z,2.80
2022-08-12T14:53:45.791Z,3.72
2022-08-12T14:55:13.851Z,2.80
2022-08-12T14:57:58.883Z,3.42
2022-08-12T14:59:56.944Z,2.20
2022-08-12T15:01:07.461Z,3.80
2022-08-12T15:02:10.508Z,3.58
2022-08-12T15:03:15.386Z,2.15
2022-08-12T15:04:20.125Z,3.88
2022-08-12T15:06:05.085Z,2.45
2022-08-12T15:06:52.685Z,2.15
2022-08-12T15:08:04.893Z,4.38
2022-08-12T15:09:12.201Z,3.15
2022-08-12T15:10:14.047Z,2.00
2022-08-12T15:11:17.151Z,1.70
2022-08-12T15:12:24.682Z,3.50
2022-08-12T15:13:27.370Z,1.42
2022-08-12T15:14:30.363Z,2.97
2022-08-12T15:15:38.558Z,2.60
2022-08-12T15:16:46.916Z,1.75
2022-08-12T15:17:59.351Z,3.78
2022-08-12T15:19:02.180Z,2.53
2022-08-12T15:20:33.157Z,2.17
2022-08-12T15:22:38.483Z,2.28
2022-08-12T15:23:03.722Z,6.40
2022-08-12T15:24:08.574Z,4.93
2022-08-12T15:25:17.519Z,3.08
2022-08-12T15:26:21.377Z,2.22
2022-08-12T15:28:10.928Z,2.33
2022-08-12T15:28:54.974Z,2.90
2022-08-12T15:29:56.631Z,3.15
2022-08-12T15:30:59.210Z,3.53
2022-08-12T15:32:10.711Z,1.73
2022-08-12T15:33:18.847Z,1.65
2022-08-12T15:34:22.911Z,3.38
2022-08-12T15:35:38.109Z,5.18
2022-08-12T15:36:54.624Z,5.07
2022-08-12T15:38:10.520Z,6.28
2022-08-12T15:39:17.549Z,2.80
2022-08-12T15:40:30.205Z,2.67